createdAt,value
2018-11-14T00:01:38.188Z,3.60
2018-11-14T00:04:05.822Z,3.30
2018-11-14T00:06:33.425Z,2.33
2018-11-14T00:09:01.030Z,2.50
2018-11-14T00:11:28.601Z,2.73
2018-11-14T00:13:56.278Z,2.80
2018-11-14T00:16:23.871Z,2.03
2018-11-14T00:18:51.485Z,2.12
2018-11-14T00:21:19.141Z,2.33
2018-11-14T00:23:46.815Z,2.40
2018-11-14T00:26:14.661Z,3.13
2018-11-14T00:28:42.336Z,2.60
2018-11-14T00:31:09.987Z,2.15
2018-11-14T00:33:37.590Z,2.23
2018-11-14T00:36:05.400Z,3.73
2018-11-14T00:38:32.988Z,1.50
2018-11-14T00:41:00.694Z,2.47
2018-11-14T00:43:28.382Z,3.73
2018-11-14T00:45:55.974Z,2.22
2018-11-14T00:48:23.594Z,2.15
2018-11-14T00:50:51.235Z,1.97
2018-11-14T00:53:18.840Z,2.37
2018-11-14T00:55:46.454Z,2.37
2018-11-14T00:58:14.100Z,2.70
2018-11-14T01:00:41.800Z,2.80
2018-11-14T01:03:09.444Z,2.33
2018-11-14T01:05:37.103Z,2.58
2018-11-14T01:08:04.894Z,2.20
2018-11-14T01:10:32.544Z,3.00
2018-11-14T01:13:00.264Z,2.77
2018-11-14T01:15:27.906Z,2.60
2018-11-14T01:17:55.678Z,2.37
2018-11-14T01:20:23.420Z,2.40
2018-11-14T01:22:51.077Z,2.97
2018-11-14T01:25:19.265Z,2.85
2018-11-14T01:27:47.057Z,2.53
2018-11-14T01:30:18.160Z,2.40
2018-11-14T01:32:46.492Z,2.80
2018-11-14T01:35:14.750Z,2.80
2018-11-14T01:37:42.341Z,3.70
2018-11-14T01:40:18.359Z,3.05
2018-11-14T01:42:47.295Z,3.30
2018-11-14T01:45:14.961Z,3.97
2018-11-14T01:47:42.585Z,2.27
2018-11-14T01:50:10.551Z,2.70
2018-11-14T01:52:38.681Z,2.85
2018-11-14T01:55:09.670Z,2.85
2018-11-14T01:57:37.272Z,2.43
2018-11-14T02:00:09.729Z,3.12
2018-11-14T02:02:37.350Z,2.60
2018-11-14T02:05:06.983Z,2.87
2018-11-14T02:07:35.222Z,2.43
2018-11-14T02:10:03.602Z,4.17
2018-11-14T02:12:31.302Z,3.30
2018-11-14T02:14:58.942Z,3.70
2018-11-14T02:17:26.522Z,2.92
2018-11-14T02:19:54.186Z,3.17
2018-11-14T02:22:21.876Z,4.37
2018-11-14T02:24:49.464Z,2.87
2018-11-14T02:27:17.121Z,2.60
2018-11-14T02:29:44.722Z,3.00
2018-11-14T02:32:12.422Z,3.50
2018-11-14T02:34:40.058Z,3.08
2018-11-14T02:37:07.759Z,3.57
2018-11-14T02:39:35.443Z,3.45
2018-11-14T02:42:03.105Z,3.10
2018-11-14T02:44:30.674Z,2.77
2018-11-14T02:46:58.315Z,3.33
2018-11-14T02:49:25.989Z,3.00
2018-11-14T02:51:53.612Z,3.17
2018-11-14T02:54:21.323Z,3.10
2018-11-14T02:56:48.935Z,3.97
2018-11-14T02:59:16.565Z,2.98
2018-11-14T03:01:44.184Z,3.53
2018-11-14T03:04:11.825Z,3.47
2018-11-14T03:06:39.444Z,3.20
2018-11-14T03:09:08.151Z,2.97
2018-11-14T03:11:35.737Z,3.20
2018-11-14T03:14:03.597Z,3.40
2018-11-14T03:16:31.237Z,2.70
2018-11-14T03:18:58.867Z,2.73
2018-11-14T03:21:26.526Z,2.70
2018-11-14T03:23:54.180Z,2.40
2018-11-14T03:26:21.807Z,2.65
2018-11-14T03:28:49.473Z,3.10
2018-11-14T03:31:17.135Z,2.10
2018-11-14T03:33:44.882Z,2.63
2018-11-14T03:36:16.063Z,2.52
2018-11-14T03:38:43.888Z,2.00
2018-11-14T03:41:11.443Z,2.83
2018-11-14T03:43:39.176Z,2.80
2018-11-14T03:46:06.823Z,2.50
2018-11-14T03:48:34.530Z,3.07
2018-11-14T03:51:02.216Z,3.23
2018-11-14T03:53:29.847Z,2.72
2018-11-14T03:55:57.473Z,2.58
2018-11-14T03:58:25.259Z,2.60
2018-11-14T04:00:52.742Z,2.77
2018-11-14T04:03:20.459Z,3.75
2018-11-14T04:05:48.197Z,3.10
2018-11-14T04:08:15.882Z,3.13
2018-11-14T04:10:43.476Z,3.27
2018-11-14T04:13:11.174Z,2.50
2018-11-14T04:15:38.841Z,3.07
2018-11-14T04:18:06.494Z,2.77
2018-11-14T04:20:34.205Z,2.62
2018-11-14T04:23:01.830Z,2.80
2018-11-14T04:25:29.406Z,3.07
2018-11-14T04:27:56.982Z,2.30
2018-11-14T04:30:24.674Z,3.60
2018-11-14T04:32:52.401Z,2.60
2018-11-14T04:35:20.797Z,2.75
2018-11-14T04:37:48.622Z,2.93
2018-11-14T04:40:19.187Z,3.30
2018-11-14T04:42:46.857Z,3.10
2018-11-14T04:45:16.007Z,2.75
2018-11-14T04:47:43.790Z,2.20
2018-11-14T04:50:14.991Z,2.43
2018-11-14T04:52:43.322Z,2.90
2018-11-14T04:55:12.504Z,2.90
2018-11-14T04:57:40.700Z,3.13
2018-11-14T05:00:10.074Z,2.17
2018-11-14T05:02:38.090Z,3.07
2018-11-14T05:05:08.317Z,2.50
2018-11-14T05:07:36.083Z,2.10
2018-11-14T05:10:05.241Z,3.33
2018-11-14T05:12:32.952Z,3.23
2018-11-14T05:15:00.551Z,3.17
2018-11-14T05:17:28.136Z,2.52
2018-11-14T05:19:55.756Z,2.40
2018-11-14T05:22:23.394Z,2.67
2018-11-14T05:24:51.165Z,3.20
2018-11-14T05:27:18.777Z,2.30
2018-11-14T05:29:46.473Z,3.20
2018-11-14T05:32:14.213Z,3.80
2018-11-14T05:34:42.033Z,4.63
2018-11-14T05:37:09.651Z,5.40
2018-11-14T05:39:37.377Z,4.40
2018-11-14T05:42:04.988Z,3.80
2018-11-14T05:44:32.640Z,3.20
2018-11-14T05:47:00.390Z,3.33
2018-11-14T05:49:27.998Z,2.70
2018-11-14T05:51:55.646Z,2.33
2018-11-14T05:54:23.354Z,3.15
2018-11-14T05:56:51.045Z,2.60
2018-11-14T05:59:18.865Z,2.97
2018-11-14T06:01:46.580Z,2.87
2018-11-14T06:04:14.297Z,2.20
2018-11-14T06:06:41.926Z,2.40
2018-11-14T06:09:11.622Z,3.20
2018-11-14T06:11:39.235Z,2.50
2018-11-14T06:14:06.976Z,2.90
2018-11-14T06:16:34.810Z,2.95
2018-11-14T06:19:02.506Z,3.00
2018-11-14T06:21:30.162Z,3.10
2018-11-14T06:23:57.814Z,2.53
2018-11-14T06:26:25.502Z,3.72
2018-11-14T06:28:53.137Z,3.08
2018-11-14T06:31:20.766Z,3.40
2018-11-14T06:33:48.381Z,3.63
2018-11-14T06:36:16.040Z,2.95
2018-11-14T06:38:43.674Z,3.73
2018-11-14T06:41:11.367Z,3.42
2018-11-14T06:43:39.013Z,3.50
2018-11-14T06:46:06.744Z,4.00
2018-11-14T06:48:34.417Z,5.10
2018-11-14T06:51:02.063Z,3.60
2018-11-14T06:53:29.765Z,2.70
2018-11-14T06:55:57.499Z,3.87
2018-11-14T06:58:25.127Z,3.90
2018-11-14T07:00:52.949Z,3.77
2018-11-14T07:03:20.694Z,3.57
2018-11-14T07:05:48.391Z,3.27
2018-11-14T07:08:16.029Z,3.80
2018-11-14T07:10:43.711Z,3.80
2018-11-14T07:13:12.363Z,3.52
2018-11-14T07:15:40.614Z,2.63
2018-11-14T07:18:09.331Z,4.73
2018-11-14T07:20:38.527Z,3.33
2018-11-14T07:23:06.549Z,3.83
2018-11-14T07:25:34.427Z,3.80
2018-11-14T07:28:02.113Z,6.13
2018-11-14T07:30:30.371Z,5.75
2018-11-14T07:33:01.122Z,4.23
2018-11-14T07:35:28.720Z,3.80
2018-11-14T07:38:39.235Z,3.40
2018-11-14T07:41:09.418Z,3.60
2018-11-14T07:43:37.649Z,4.37
2018-11-14T07:46:05.872Z,3.47
2018-11-14T07:48:33.808Z,3.90
2018-11-14T07:51:01.658Z,3.63
2018-11-14T07:53:29.322Z,3.33
2018-11-14T07:55:57.150Z,3.80
2018-11-14T07:58:24.782Z,4.62
2018-11-14T08:00:52.916Z,3.00
2018-11-14T08:03:20.540Z,3.65
2018-11-14T08:05:48.181Z,3.10
2018-11-14T08:08:15.920Z,4.33
2018-11-14T08:10:43.473Z,3.25
2018-11-14T08:13:11.150Z,3.77
2018-11-14T08:15:38.874Z,3.20
2018-11-14T08:18:06.648Z,3.10
2018-11-14T08:20:34.364Z,2.97
2018-11-14T08:23:02.018Z,3.92
2018-11-14T08:25:29.786Z,3.33
2018-11-14T08:27:57.376Z,2.67
2018-11-14T08:30:24.973Z,3.17
2018-11-14T08:32:52.633Z,3.33
2018-11-14T08:35:20.221Z,3.47
2018-11-14T08:37:47.841Z,3.60
2018-11-14T08:40:15.403Z,3.67
2018-11-14T08:42:43.071Z,2.50
2018-11-14T08:45:11.399Z,3.37
2018-11-14T08:47:39.764Z,3.10
2018-11-14T08:50:11.054Z,2.47
2018-11-14T08:52:39.253Z,3.37
2018-11-14T08:55:07.560Z,2.73
2018-11-14T08:57:35.513Z,3.10
2018-11-14T09:00:04.175Z,2.50
2018-11-14T09:02:31.774Z,2.80
2018-11-14T09:04:59.422Z,2.40
2018-11-14T09:07:27.109Z,2.90
2018-11-14T09:09:54.739Z,3.70
2018-11-14T09:12:22.345Z,2.10
2018-11-14T09:14:50.054Z,3.12
2018-11-14T09:17:17.707Z,2.80
2018-11-14T09:19:45.305Z,2.60
2018-11-14T09:22:12.993Z,2.83
2018-11-14T09:24:40.595Z,3.42
2018-11-14T09:27:08.295Z,3.30
2018-11-14T09:29:35.900Z,3.55
2018-11-14T09:32:03.803Z,3.25
2018-11-14T09:34:31.593Z,3.17
2018-11-14T09:36:59.197Z,3.40
2018-11-14T09:39:26.854Z,2.90
2018-11-14T09:41:54.476Z,3.67
2018-11-14T09:44:22.135Z,4.03
2018-11-14T09:46:49.764Z,3.37
2018-11-14T09:49:17.548Z,3.20
2018-11-14T09:51:45.198Z,3.90
2018-11-14T09:54:12.831Z,3.47
2018-11-14T09:56:40.427Z,3.73
2018-11-14T09:59:08.051Z,3.08
2018-11-14T10:01:35.646Z,3.43
2018-11-14T10:04:03.478Z,3.97
2018-11-14T10:06:31.132Z,3.30
2018-11-14T10:08:58.892Z,3.17
2018-11-14T10:11:26.484Z,3.50
2018-11-14T10:13:54.124Z,3.50
2018-11-14T10:16:21.738Z,3.50
2018-11-14T10:18:49.333Z,4.35
2018-11-14T10:21:17.014Z,3.23
2018-11-14T10:23:44.587Z,2.87
2018-11-14T10:26:12.285Z,2.97
2018-11-14T10:28:39.919Z,3.60
2018-11-14T10:31:07.578Z,2.70
2018-11-14T10:33:35.217Z,4.37
2018-11-14T10:36:02.829Z,3.27
2018-11-14T10:38:30.491Z,2.97
2018-11-14T10:40:58.125Z,2.90
2018-11-14T10:43:25.720Z,3.02
2018-11-14T10:45:53.355Z,3.10
2018-11-14T10:48:21.026Z,2.83
2018-11-14T10:50:48.630Z,3.33
2018-11-14T10:53:16.236Z,2.40
2018-11-14T10:55:43.863Z,2.47
2018-11-14T10:58:11.534Z,2.42
2018-11-14T11:00:45.014Z,2.37
2018-11-14T11:03:18.525Z,3.47
2018-11-14T11:06:02.994Z,3.47
2018-11-14T11:08:36.603Z,3.30
2018-11-14T11:11:10.441Z,2.70
2018-11-14T11:14:13.113Z,2.93
2018-11-14T11:16:47.854Z,2.37
2018-11-14T11:19:20.046Z,2.90
2018-11-14T11:21:47.730Z,4.00
2018-11-14T11:24:16.575Z,2.55
2018-11-14T11:26:44.245Z,2.50
2018-11-14T11:29:11.903Z,2.60
2018-11-14T11:31:39.563Z,2.72
2018-11-14T11:34:08.144Z,3.30
2018-11-14T11:36:35.874Z,3.13
2018-11-14T11:39:07.565Z,2.80
2018-11-14T11:41:35.304Z,2.57
2018-11-14T11:44:02.959Z,2.47
2018-11-14T11:46:30.643Z,2.87
2018-11-14T11:48:58.314Z,2.57
2018-11-14T11:51:25.969Z,2.17
2018-11-14T11:53:53.682Z,2.73
2018-11-14T11:56:21.361Z,3.02
2018-11-14T11:58:48.974Z,3.00
2018-11-14T12:01:16.626Z,3.80
2018-11-14T12:03:44.242Z,3.67
2018-11-14T12:06:11.939Z,3.45
2018-11-14T12:08:39.488Z,2.53
2018-11-14T12:11:07.133Z,2.40
2018-11-14T12:13:34.825Z,3.52
2018-11-14T12:16:02.463Z,2.50
2018-11-14T12:18:30.086Z,2.63
2018-11-14T12:20:57.634Z,2.42
2018-11-14T12:23:25.269Z,2.43
2018-11-14T12:25:52.894Z,3.27
2018-11-14T12:28:20.519Z,3.03
2018-11-14T12:30:48.367Z,2.85
2018-11-14T12:33:15.753Z,2.70
2018-11-14T12:35:43.450Z,3.02
2018-11-14T12:38:11.049Z,3.00
2018-11-14T12:40:38.631Z,2.87
2018-11-14T12:43:06.908Z,2.50
2018-11-14T12:45:34.555Z,2.70
2018-11-14T12:48:02.246Z,2.30
2018-11-14T12:50:29.969Z,1.83
2018-11-14T12:52:57.585Z,2.27
2018-11-14T12:55:25.224Z,2.43
2018-11-14T12:57:52.854Z,3.70
2018-11-14T13:00:20.957Z,2.17
2018-11-14T13:02:48.632Z,2.60
2018-11-14T13:05:16.589Z,1.70
2018-11-14T13:07:44.656Z,3.13
2018-11-14T13:10:13.575Z,2.23
2018-11-14T13:12:41.589Z,2.33
2018-11-14T13:15:10.643Z,2.43
2018-11-14T13:17:38.483Z,1.80
2018-11-14T13:20:09.369Z,2.70
2018-11-14T13:22:36.991Z,1.87
2018-11-14T13:25:06.737Z,2.85
2018-11-14T13:27:34.329Z,1.93
2018-11-14T13:30:01.905Z,1.95
2018-11-14T13:32:29.513Z,1.90
2018-11-14T13:34:57.501Z,2.43
2018-11-14T13:37:25.035Z,1.40
2018-11-14T13:39:52.633Z,1.80
2018-11-14T13:42:20.282Z,1.50
2018-11-14T13:44:48.159Z,2.03
2018-11-14T13:47:15.844Z,2.70
2018-11-14T13:49:43.744Z,2.30
2018-11-14T13:52:11.222Z,1.40
2018-11-14T13:54:38.843Z,2.45
2018-11-14T13:57:06.537Z,1.90
2018-11-14T13:59:34.189Z,2.00
2018-11-14T14:02:01.840Z,2.62
2018-11-14T14:04:29.511Z,1.43
2018-11-14T14:06:57.089Z,5.43
2018-11-14T14:09:24.820Z,2.75
2018-11-14T14:11:52.388Z,2.72
2018-11-14T14:14:20.169Z,2.17
2018-11-14T14:16:48.775Z,1.80
2018-11-14T14:19:16.796Z,4.53
2018-11-14T14:21:44.485Z,4.97
2018-11-14T14:24:12.253Z,7.10
2018-11-14T14:26:40.121Z,2.60
2018-11-14T14:29:08.431Z,1.98
2018-11-14T14:31:36.429Z,2.27
2018-11-14T14:34:04.535Z,8.07
2018-11-14T14:36:32.135Z,4.10
2018-11-14T14:38:59.854Z,3.40
2018-11-14T14:41:27.495Z,1.90
2018-11-14T14:43:55.156Z,2.80
2018-11-14T15:58:24.679Z,5.80
2018-11-14T16:00:52.344Z,6.00
2018-11-14T16:03:20.754Z,6.22
2018-11-14T16:05:48.446Z,5.60
2018-11-14T16:08:16.211Z,5.93
2018-11-14T16:10:44.620Z,7.80
2018-11-14T16:13:12.484Z,6.83
2018-11-14T16:15:40.109Z,8.60
2018-11-14T16:18:07.839Z,6.62
2018-11-14T16:20:36.234Z,7.13
2018-11-14T16:23:03.978Z,5.27
2018-11-14T16:25:32.459Z,7.35
2018-11-14T16:28:01.573Z,4.87
2018-11-14T16:30:30.786Z,5.97
2018-11-14T16:33:01.083Z,7.20
2018-11-14T16:35:29.141Z,6.10
2018-11-14T16:40:39.980Z,6.00
2018-11-14T16:43:08.727Z,6.27
2018-11-14T16:45:37.035Z,6.37
2018-11-14T16:48:04.752Z,6.90
2018-11-14T16:50:33.865Z,6.30
2018-11-14T16:53:04.160Z,7.90
2018-11-14T16:55:31.977Z,8.67
2018-11-14T16:57:59.691Z,6.63
2018-11-14T17:00:28.625Z,8.80
2018-11-14T17:02:57.402Z,7.23
2018-11-14T17:05:27.401Z,9.00
2018-11-14T17:07:55.432Z,8.70
2018-11-14T17:10:24.447Z,9.90
2018-11-14T17:12:53.616Z,9.47
2018-11-14T17:15:23.139Z,10.70
2018-11-14T17:17:50.999Z,9.30
2018-11-14T17:20:19.533Z,9.17
2018-11-14T17:22:48.037Z,10.37
2018-11-14T17:25:16.437Z,9.40
2018-11-14T17:27:45.527Z,10.10
2018-11-14T17:30:16.406Z,9.40
2018-11-14T17:32:44.821Z,9.13
2018-11-14T17:35:13.533Z,9.10
2018-11-14T17:37:42.208Z,10.93
2018-11-14T17:40:13.904Z,9.13
2018-11-14T17:42:43.181Z,9.00
2018-11-14T17:45:14.125Z,10.03
2018-11-14T17:47:42.041Z,8.57
2018-11-14T17:50:17.163Z,9.77
2018-11-14T17:52:46.023Z,12.93
2018-11-14T17:55:17.313Z,16.27
2018-11-14T17:57:45.004Z,14.37
2018-11-14T18:00:15.489Z,14.90
2018-11-14T18:02:43.708Z,14.80
2018-11-14T18:05:12.897Z,12.80
2018-11-14T18:07:41.141Z,13.27
2018-11-14T18:10:11.820Z,13.70
2018-11-14T18:12:40.712Z,12.73
2018-11-14T18:15:09.561Z,13.40
2018-11-14T18:17:38.088Z,12.80
2018-11-14T18:20:09.478Z,12.03
2018-11-14T18:22:38.564Z,13.33
2018-11-14T18:25:06.841Z,14.17
2018-11-14T18:27:36.169Z,13.50
2018-11-14T18:30:08.751Z,12.50
2018-11-14T18:32:37.317Z,13.87
2018-11-14T18:35:09.304Z,15.97
2018-11-14T18:37:38.018Z,12.83
2018-11-14T18:40:09.679Z,14.47
2018-11-14T18:42:38.205Z,14.13
2018-11-14T18:45:11.014Z,12.30
2018-11-14T18:47:39.200Z,10.37
2018-11-14T18:50:09.169Z,9.27
2018-11-14T18:52:37.222Z,10.33
2018-11-14T18:55:08.183Z,12.90
2018-11-14T18:57:36.155Z,9.90
2018-11-14T19:00:07.341Z,10.97
2018-11-14T19:02:35.207Z,10.70
2018-11-14T19:05:03.273Z,11.23
2018-11-14T19:07:31.975Z,13.50
2018-11-14T19:09:59.826Z,11.00
2018-11-14T19:12:27.700Z,11.80
2018-11-14T19:14:55.584Z,13.10
2018-11-14T19:17:23.977Z,9.63
2018-11-14T19:19:51.726Z,11.73
2018-11-14T19:22:20.035Z,12.03
2018-11-14T19:24:49.094Z,12.60
2018-11-14T19:27:17.414Z,13.13
2018-11-14T19:29:45.423Z,12.97
2018-11-14T19:32:13.273Z,12.30
2018-11-14T19:34:41.057Z,14.70
2018-11-14T19:37:10.283Z,13.63
2018-11-14T19:39:38.237Z,11.53
2018-11-14T19:42:06.781Z,12.73
2018-11-14T19:44:34.900Z,12.07
2018-11-14T19:47:02.849Z,11.20
2018-11-14T19:49:30.881Z,11.50
2018-11-14T19:51:58.940Z,12.50
2018-11-14T19:54:26.704Z,12.83
2018-11-14T19:56:54.652Z,13.13
2018-11-14T19:59:22.745Z,12.80
2018-11-14T20:01:50.775Z,13.20
2018-11-14T20:04:18.608Z,12.77
2018-11-14T20:06:46.733Z,12.47
2018-11-14T20:09:14.893Z,13.17
2018-11-14T20:11:43.397Z,14.53
2018-11-14T20:14:11.139Z,11.90
2018-11-14T20:16:39.649Z,14.90
2018-11-14T20:19:08.005Z,14.30
2018-11-14T20:21:36.608Z,15.57
2018-11-14T20:24:06.763Z,12.63
2018-11-14T20:26:34.519Z,13.13
2018-11-14T20:29:02.556Z,13.63
2018-11-14T20:31:30.634Z,12.87
2018-11-14T20:34:00.299Z,13.27
2018-11-14T20:36:28.156Z,14.80
2018-11-14T20:38:55.965Z,13.43
2018-11-14T20:41:23.882Z,13.97
2018-11-14T20:43:51.632Z,13.30
2018-11-14T20:46:19.486Z,12.15
2018-11-14T20:48:47.237Z,11.20
2018-11-14T20:51:14.912Z,10.78
2018-11-14T20:53:42.879Z,10.97
2018-11-14T20:56:11.070Z,10.78
2018-11-14T20:58:38.918Z,11.07
2018-11-14T21:01:06.830Z,11.00
2018-11-14T21:03:36.228Z,10.90
2018-11-14T21:06:04.089Z,10.33
2018-11-14T21:08:31.900Z,11.80
2018-11-14T21:10:59.687Z,11.53
2018-11-14T21:13:27.477Z,12.75
2018-11-14T21:15:55.291Z,11.65
2018-11-14T21:18:23.080Z,12.00
2018-11-14T21:20:51.447Z,11.12
2018-11-14T21:23:21.548Z,15.80
2018-11-14T21:25:49.351Z,18.20
2018-11-14T21:28:17.079Z,20.67
2018-11-14T21:30:44.884Z,18.73
2018-11-14T21:33:12.919Z,19.32
2018-11-14T21:35:40.607Z,17.60
2018-11-14T21:38:08.937Z,12.47
2018-11-14T21:40:36.727Z,13.47
2018-11-14T21:43:05.688Z,12.70
2018-11-14T21:45:33.532Z,13.30
2018-11-14T21:48:07.342Z,14.20
2018-11-14T21:50:35.490Z,14.10
2018-11-14T21:53:03.223Z,15.87
2018-11-14T21:55:30.920Z,13.30
2018-11-14T21:57:58.900Z,12.43
2018-11-14T22:00:30.501Z,13.60
2018-11-14T22:02:58.588Z,13.13
2018-11-14T22:05:26.274Z,13.00
2018-11-14T22:07:54.045Z,13.63
2018-11-14T22:10:22.829Z,12.55
2018-11-14T22:12:51.387Z,15.23
2018-11-14T22:15:20.288Z,14.50
2018-11-14T22:17:48.666Z,14.70
2018-11-14T22:20:18.203Z,11.87
2018-11-14T22:22:46.577Z,12.07
2018-11-14T22:25:15.625Z,14.53
2018-11-14T22:27:43.618Z,15.00
2018-11-14T22:30:14.689Z,12.73
2018-11-14T22:32:42.674Z,13.33
2018-11-14T22:35:12.849Z,13.47
2018-11-14T22:37:40.739Z,16.07
2018-11-14T22:40:11.466Z,15.20
2018-11-14T22:42:39.188Z,12.83
2018-11-14T22:45:09.976Z,12.07
2018-11-14T22:47:38.371Z,12.83
2018-11-14T22:50:07.866Z,11.13
2018-11-14T22:52:35.853Z,11.57
2018-11-14T22:55:04.788Z,12.23
2018-11-14T22:57:32.532Z,13.57
2018-11-14T23:00:01.013Z,10.27
2018-11-14T23:02:29.200Z,12.53
2018-11-14T23:04:56.965Z,11.33
2018-11-14T23:07:24.659Z,13.30
2018-11-14T23:09:52.393Z,13.03
2018-11-14T23:12:20.624Z,13.13
2018-11-14T23:14:48.475Z,13.00
2018-11-14T23:17:16.318Z,12.18
2018-11-14T23:19:44.027Z,12.53
2018-11-14T23:22:11.729Z,12.82
2018-11-14T23:24:39.553Z,11.87
2018-11-14T23:27:08.358Z,12.90
2018-11-14T23:29:36.062Z,12.90
2018-11-14T23:32:04.369Z,10.60
2018-11-14T23:34:32.212Z,11.93
2018-11-14T23:36:59.940Z,13.10
2018-11-14T23:39:27.680Z,11.50
2018-11-14T23:41:55.404Z,11.18
2018-11-14T23:44:23.537Z,10.05
2018-11-14T23:46:51.320Z,10.82
2018-11-14T23:49:19.209Z,10.98
2018-11-14T23:51:46.872Z,11.50
2018-11-14T23:54:14.652Z,12.47
2018-11-14T23:56:42.683Z,11.80
2018-11-14T23:59:10.375Z,11.80
